Time;durP1;ratioP1;P1;durP2;ratioP2;P2;SDS_P1;SDS_P2;PMS_P1;PMS_P2;Temp;Humidity;BMP_temperature;BMP_pressure;BME280_temperature;BME280_humidity;BME280_pressure;Samples;Min_cycle;Max_cycle;Signal;HPM_P1;HPM_P2
2022/09/21 00:00:29;;;;;;;3.35;2.20;;;6.30;99.90;;;;;;5014702;28;20421;-67
2022/09/21 00:02:56;;;;;;;2.38;1.67;;;6.30;99.90;;;;;;5014966;28;20022;-67
2022/09/21 00:05:22;;;;;;;2.92;2.00;;;6.20;99.90;;;;;;5014672;28;20382;-67
2022/09/21 00:07:48;;;;;;;3.25;1.95;;;6.20;99.90;;;;;;5014822;28;20061;-67
2022/09/21 00:10:15;;;;;;;5.18;2.13;;;6.10;99.90;;;;;;5014766;28;20049;-67
2022/09/21 00:12:41;;;;;;;4.45;2.42;;;6.10;99.90;;;;;;5013827;28;20161;-67
2022/09/21 00:15:09;;;;;;;4.97;2.92;;;6.00;99.90;;;;;;5014505;28;20064;-66
2022/09/21 00:17:35;;;;;;;2.42;2.00;;;5.90;99.90;;;;;;5014417;28;20033;-67
2022/09/21 00:20:04;;;;;;;2.20;2.00;;;5.90;99.90;;;;;;5013738;28;20113;-67
2022/09/21 00:22:31;;;;;;;2.72;1.98;;;5.80;99.90;;;;;;5013917;28;20018;-67
2022/09/21 00:24:56;;;;;;;5.18;2.50;;;5.70;99.90;;;;;;5014334;28;20030;-67
2022/09/21 00:27:28;;;;;;;8.43;2.50;;;5.80;99.90;;;;;;5014817;28;20099;-67
2022/09/21 00:29:54;;;;;;;3.58;2.40;;;5.80;99.90;;;;;;5014456;28;20057;-66
2022/09/21 00:32:20;;;;;;;6.43;2.40;;;5.80;99.90;;;;;;5014172;28;20025;-66
2022/09/21 00:34:45;;;;;;;4.03;2.67;;;5.70;99.90;;;;;;5014201;28;20089;-67
2022/09/21 00:37:11;;;;;;;4.18;2.80;;;5.70;99.90;;;;;;5013680;28;20474;-67
2022/09/21 00:39:37;;;;;;;2.95;2.40;;;5.60;99.90;;;;;;5013996;28;20026;-67
2022/09/21 00:42:09;;;;;;;2.75;2.10;;;5.60;99.90;;;;;;5014010;28;20036;-67
2022/09/21 00:44:35;;;;;;;2.67;2.42;;;5.50;99.90;;;;;;5014848;28;20408;-67
2022/09/21 00:47:11;;;;;;;5.43;2.70;;;5.50;99.90;;;;;;5013536;28;20535;-67
2022/09/21 00:49:39;;;;;;;4.90;2.80;;;5.40;99.90;;;;;;5013990;28;20034;-67
2022/09/21 00:52:07;;;;;;;5.95;2.90;;;5.40;99.90;;;;;;5013939;28;20112;-67
2022/09/21 00:54:40;;;;;;;4.18;2.78;;;5.40;99.90;;;;;;5014666;28;20030;-67
2022/09/21 00:57:06;;;;;;;7.53;2.78;;;5.40;99.90;;;;;;5013360;28;20022;-67
2022/09/21 00:59:36;;;;;;;6.32;2.97;;;5.40;99.90;;;;;;5013772;28;20030;-67
2022/09/21 01:02:01;;;;;;;4.97;3.20;;;5.30;99.90;;;;;;5014068;28;20022;-67
2022/09/21 01:04:28;;;;;;;5.25;2.63;;;5.30;99.90;;;;;;5013190;28;20029;-67
2022/09/21 01:06:56;;;;;;;2.97;2.50;;;5.20;99.90;;;;;;5013718;28;20478;-67
2022/09/21 01:09:22;;;;;;;4.45;2.15;;;5.20;99.90;;;;;;4996597;28;20037;-67
2022/09/21 01:11:54;;;;;;;3.15;2.50;;;5.20;99.90;;;;;;5013562;28;20033;-67
2022/09/21 01:14:48;;;;;;;5.80;3.08;;;5.20;99.90;;;;;;5013867;28;20369;-67
2022/09/21 01:17:22;;;;;;;5.05;2.50;;;5.20;99.90;;;;;;5013935;28;20022;-67
2022/09/21 01:20:19;;;;;;;3.55;2.70;;;5.10;99.90;;;;;;5013156;28;20117;-67
2022/09/21 01:23:12;;;;;;;8.50;3.67;;;5.10;99.90;;;;;;5013565;28;20508;-67
2022/09/21 01:25:53;;;;;;;5.18;3.28;;;5.10;99.90;;;;;;5013490;28;20032;-67
2022/09/21 01:28:39;;;;;;;5.75;3.05;;;5.10;99.90;;;;;;5012539;28;20358;-67
2022/09/21 01:31:10;;;;;;;8.02;3.15;;;5.10;99.90;;;;;;5015682;28;20559;-67
2022/09/21 01:33:43;;;;;;;5.68;3.33;;;5.10;99.90;;;;;;5016971;28;20030;-67
2022/09/21 01:36:13;;;;;;;7.90;3.72;;;5.00;99.90;;;;;;5017526;28;20037;-67
2022/09/21 01:38:47;;;;;;;4.20;2.90;;;5.00;99.90;;;;;;5023390;28;20017;-67
2022/09/21 01:41:17;;;;;;;6.97;3.00;;;5.00;99.90;;;;;;5038216;28;20043;-67
2022/09/21 01:43:50;;;;;;;5.93;3.25;;;4.90;99.90;;;;;;5036267;28;20504;-67
2022/09/21 01:46:18;;;;;;;4.20;2.95;;;4.90;99.90;;;;;;5033570;28;20029;-67
2022/09/21 01:48:47;;;;;;;3.97;2.55;;;4.90;99.90;;;;;;5035494;28;20375;-67
2022/09/21 01:51:16;;;;;;;7.85;2.67;;;4.90;99.90;;;;;;5036651;28;20128;-67
2022/09/21 01:53:51;;;;;;;2.88;2.20;;;4.90;99.90;;;;;;5036508;28;20025;-67
2022/09/21 01:56:29;;;;;;;3.35;2.72;;;4.90;99.90;;;;;;5018044;28;20076;-67
2022/09/21 01:59:16;;;;;;;2.40;2.20;;;4.90;99.90;;;;;;5017287;28;20018;-67
2022/09/21 02:01:50;;;;;;;4.93;2.47;;;4.90;99.90;;;;;;5025942;28;20029;-67
2022/09/21 02:04:17;;;;;;;3.25;2.95;;;4.80;99.90;;;;;;5002707;28;20105;-67
2022/09/21 02:06:45;;;;;;;4.95;2.65;;;4.80;99.90;;;;;;5016999;28;20417;-67
2022/09/21 02:09:12;;;;;;;6.43;3.22;;;4.80;99.90;;;;;;5016129;28;20092;-67
2022/09/21 02:11:41;;;;;;;8.70;3.15;;;4.80;99.90;;;;;;5033746;28;20057;-67
2022/09/21 02:14:12;;;;;;;3.78;3.17;;;4.80;99.90;;;;;;5036511;28;20037;-67
2022/09/21 02:17:14;;;;;;;4.68;2.75;;;4.80;99.90;;;;;;5036465;28;20060;-67
2022/09/21 02:19:53;;;;;;;2.40;2.15;;;4.70;99.90;;;;;;5036085;28;20028;-67
2022/09/21 02:22:41;;;;;;;3.08;2.15;;;4.70;99.90;;;;;;5036405;28;20071;-67
2022/09/21 02:25:12;;;;;;;3.17;2.20;;;4.70;99.90;;;;;;5024235;28;20466;-67
2022/09/21 02:27:54;;;;;;;6.20;2.38;;;4.60;99.90;;;;;;5016581;28;20100;-67
2022/09/21 02:30:24;;;;;;;2.67;2.22;;;4.50;99.90;;;;;;5016341;28;20037;-66
2022/09/21 02:33:35;;;;;;;3.03;2.47;;;4.50;99.90;;;;;;5016064;28;20038;-67
2022/09/21 02:36:14;;;;;;;4.03;2.17;;;4.50;99.90;;;;;;5000564;28;20482;-67
2022/09/21 02:39:11;;;;;;;4.55;2.20;;;4.60;99.90;;;;;;5016384;28;20026;-67
2022/09/21 02:42:07;;;;;;;3.58;2.65;;;4.50;99.90;;;;;;5016326;28;20018;-66
2022/09/21 02:44:51;;;;;;;4.80;3.17;;;4.50;99.90;;;;;;5013397;28;20046;-67
2022/09/21 02:47:33;;;;;;;4.47;3.45;;;4.50;99.90;;;;;;5016456;28;20076;-67
2022/09/21 02:52:30;;;;;;;5.07;3.20;;;4.50;99.90;;;;;;5072799;28;20084;-71
2022/09/21 02:54:57;;;;;;;4.35;3.15;;;4.40;99.90;;;;;;5076009;28;20021;-71
2022/09/21 02:57:24;;;;;;;5.28;2.90;;;4.40;99.90;;;;;;5077599;28;20023;-71
2022/09/21 02:59:50;;;;;;;4.70;3.30;;;4.40;99.90;;;;;;5077466;28;20032;-71
2022/09/21 03:02:16;;;;;;;5.47;3.28;;;4.30;99.90;;;;;;5057058;28;20055;-72
2022/09/21 03:04:46;;;;;;;4.68;3.42;;;4.40;99.90;;;;;;5041381;28;20495;-71
2022/09/21 03:07:13;;;;;;;3.03;2.75;;;4.30;99.90;;;;;;5036463;28;20026;-71
2022/09/21 03:09:39;;;;;;;4.30;3.20;;;4.30;99.90;;;;;;5035990;28;20113;-71
2022/09/21 03:12:04;;;;;;;3.88;3.05;;;4.30;99.90;;;;;;5035759;28;20121;-71
2022/09/21 03:14:31;;;;;;;4.85;3.20;;;4.20;99.90;;;;;;5035787;28;20022;-71
2022/09/21 03:16:57;;;;;;;3.92;2.83;;;4.20;99.90;;;;;;5035375;28;20025;-71
2022/09/21 03:19:24;;;;;;;3.67;2.60;;;4.20;99.90;;;;;;5035635;28;20143;-71
2022/09/21 03:21:50;;;;;;;3.72;2.10;;;4.10;99.90;;;;;;5035632;28;20026;-71
2022/09/21 03:24:44;;;;;;;3.50;2.72;;;4.10;99.90;;;;;;5036180;28;20040;-71
2022/09/21 03:27:01;;;;;;;3.03;2.45;;;4.00;99.90;;;;;;5035027;28;20034;-71
2022/09/21 03:29:26;;;;;;;5.10;3.00;;;4.00;99.90;;;;;;5035532;28;20021;-71
2022/09/21 03:31:52;;;;;;;9.10;3.13;;;4.00;99.90;;;;;;5035734;28;20036;-71
2022/09/21 03:34:19;;;;;;;6.10;2.63;;;4.10;99.90;;;;;;5035423;28;20097;-71
2022/09/21 03:36:46;;;;;;;2.95;2.35;;;4.10;99.90;;;;;;5035478;28;20132;-71
2022/09/21 03:39:11;;;;;;;4.95;2.88;;;4.10;99.90;;;;;;5035637;28;20021;-71
2022/09/21 03:41:37;;;;;;;3.47;2.38;;;4.00;99.90;;;;;;5034745;28;20026;-71
2022/09/21 03:44:03;;;;;;;3.50;2.47;;;3.90;99.90;;;;;;5035371;28;20021;-71
2022/09/21 03:46:29;;;;;;;2.83;2.53;;;3.90;99.90;;;;;;5035251;28;20105;-71
2022/09/21 03:48:54;;;;;;;3.08;2.63;;;3.90;99.90;;;;;;5035085;28;20113;-71
2022/09/21 03:51:20;;;;;;;5.80;2.80;;;3.80;99.90;;;;;;5035001;28;20060;-70
2022/09/21 03:53:45;;;;;;;4.85;3.20;;;3.80;99.90;;;;;;5034365;28;20033;-71
2022/09/21 03:56:11;;;;;;;4.20;3.25;;;3.80;99.90;;;;;;5035399;28;20017;-71
2022/09/21 03:58:36;;;;;;;5.70;3.05;;;3.80;99.90;;;;;;5034620;28;20022;-72
2022/09/21 04:01:03;;;;;;;3.80;2.90;;;3.80;99.90;;;;;;5053329;28;20033;-72
2022/09/21 04:03:28;;;;;;;3.22;2.85;;;3.90;99.90;;;;;;5055107;28;20058;-72
2022/09/21 04:05:54;;;;;;;5.43;2.60;;;3.80;99.90;;;;;;5054969;28;20122;-72
2022/09/21 04:08:20;;;;;;;3.22;2.70;;;3.80;99.90;;;;;;5054881;28;20084;-72
2022/09/21 04:10:45;;;;;;;4.32;3.03;;;3.90;99.90;;;;;;5054819;28;20049;-74
2022/09/21 04:13:12;;;;;;;4.90;3.42;;;3.80;99.90;;;;;;5036039;28;20470;-72
2022/09/21 04:15:38;;;;;;;4.25;3.13;;;3.80;99.90;;;;;;5034608;28;20021;-72
2022/09/21 04:18:04;;;;;;;4.53;3.88;;;3.80;99.90;;;;;;5034740;28;20067;-72
2022/09/21 04:20:30;;;;;;;5.90;3.25;;;3.70;99.90;;;;;;5034731;28;20013;-72
2022/09/21 04:22:56;;;;;;;4.03;3.50;;;3.70;99.90;;;;;;5034758;28;20104;-72
2022/09/21 04:25:22;;;;;;;6.22;3.88;;;3.70;99.90;;;;;;5034305;28;20025;-72
2022/09/21 04:27:47;;;;;;;4.82;3.72;;;3.60;99.90;;;;;;5034639;28;20036;-73
2022/09/21 04:30:15;;;;;;;4.13;2.90;;;3.60;99.90;;;;;;5034329;28;20029;-73
2022/09/21 04:32:40;;;;;;;5.72;3.20;;;3.60;99.90;;;;;;5034556;28;20047;-72
2022/09/21 04:35:06;;;;;;;6.38;3.25;;;3.60;99.90;;;;;;5053835;28;20025;-72
2022/09/21 04:37:32;;;;;;;7.32;3.30;;;3.60;99.90;;;;;;5053786;28;20023;-72
2022/09/21 04:39:58;;;;;;;4.90;3.10;;;3.50;99.90;;;;;;5053867;28;20503;-72
2022/09/21 04:42:23;;;;;;;5.68;3.22;;;3.50;99.90;;;;;;5034421;28;20445;-72
2022/09/21 04:44:49;;;;;;;8.88;3.15;;;3.50;99.90;;;;;;5034192;28;20562;-72
2022/09/21 04:47:14;;;;;;;3.95;3.13;;;3.60;99.90;;;;;;5033762;28;20030;-72
2022/09/21 04:49:40;;;;;;;4.00;3.25;;;3.50;99.90;;;;;;5034577;28;20025;-73
2022/09/21 04:52:05;;;;;;;5.20;3.50;;;3.50;99.90;;;;;;5033737;28;20056;-72
2022/09/21 04:54:31;;;;;;;6.55;4.68;;;3.50;99.90;;;;;;5034127;28;20417;-73
2022/09/21 04:56:57;;;;;;;6.28;4.28;;;3.50;99.90;;;;;;5033692;28;20389;-72
2022/09/21 04:59:22;;;;;;;6.30;4.50;;;3.50;99.90;;;;;;5034237;28;20057;-72
2022/09/21 05:01:48;;;;;;;7.72;4.82;;;3.50;99.90;;;;;;5034091;28;20027;-72
2022/09/21 05:04:13;;;;;;;5.95;3.67;;;3.50;99.90;;;;;;5033886;28;20065;-72
2022/09/21 05:06:39;;;;;;;3.75;3.35;;;3.50;99.90;;;;;;5036226;28;20057;-72
2022/09/21 05:11:49;;;;;;;4.38;3.30;;;3.50;99.90;;;;;;5053079;28;20067;-73
2022/09/21 05:14:15;;;;;;;4.07;3.65;;;3.50;99.90;;;;;;5053737;28;20021;-73
2022/09/21 05:16:40;;;;;;;5.13;3.72;;;3.50;99.90;;;;;;5053701;28;20515;-72
2022/09/21 05:19:06;;;;;;;4.55;3.55;;;3.50;99.90;;;;;;5053615;28;20070;-73
2022/09/21 05:21:32;;;;;;;5.35;4.03;;;3.50;99.90;;;;;;5069020;28;20036;-73
2022/09/21 05:23:57;;;;;;;4.68;4.20;;;3.50;99.90;;;;;;5069283;28;20108;-72
2022/09/21 05:26:24;;;;;;;4.90;3.75;;;3.60;99.90;;;;;;5055109;28;20096;-73
2022/09/21 05:28:50;;;;;;;4.25;3.72;;;3.60;99.90;;;;;;5052507;28;20457;-72
2022/09/21 05:31:49;;;;;;;4.47;4.07;;;3.70;99.90;;;;;;5033634;28;20037;-72
2022/09/21 05:34:45;;;;;;;7.70;3.80;;;3.70;99.90;;;;;;5033067;28;20021;-72
2022/09/21 05:37:39;;;;;;;4.72;4.22;;;3.70;99.90;;;;;;5033789;28;20026;-72
2022/09/21 05:40:08;;;;;;;5.55;4.35;;;3.80;99.90;;;;;;5033478;28;20025;-72
2022/09/21 05:42:34;;;;;;;4.88;3.50;;;3.80;99.90;;;;;;5033417;28;20068;-72
2022/09/21 05:45:00;;;;;;;5.18;4.55;;;3.80;99.90;;;;;;5036591;28;20021;-72
2022/09/21 05:47:53;;;;;;;7.05;4.53;;;3.90;99.90;;;;;;5052951;28;20021;-72
2022/09/21 05:50:39;;;;;;;5.38;4.30;;;3.90;99.90;;;;;;5053260;28;20037;-72
2022/09/21 05:53:23;;;;;;;10.82;5.10;;;4.00;99.90;;;;;;5053594;28;20021;-72
2022/09/21 05:55:56;;;;;;;9.32;5.97;;;4.00;99.90;;;;;;5053559;28;20025;-72
2022/09/21 05:59:00;;;;;;;7.97;5.38;;;4.10;99.90;;;;;;5053054;28;20461;-72
2022/09/21 06:01:40;;;;;;;5.93;4.63;;;4.30;99.90;;;;;;5040393;28;20112;-72
2022/09/21 06:04:11;;;;;;;6.97;4.82;;;4.40;99.90;;;;;;5033532;28;20056;-73
2022/09/21 06:06:37;;;;;;;5.05;4.20;;;4.50;99.90;;;;;;5033533;28;20104;-72
2022/09/21 06:09:03;;;;;;;5.53;4.38;;;4.70;99.90;;;;;;5033237;28;20030;-73
2022/09/21 06:11:28;;;;;;;6.25;5.25;;;4.80;99.90;;;;;;5038768;28;20032;-72
2022/09/21 06:13:54;;;;;;;5.63;4.93;;;5.00;99.90;;;;;;5053028;28;20103;-73
2022/09/21 06:16:19;;;;;;;11.23;8.27;;;5.10;99.90;;;;;;5064353;28;20095;-73
2022/09/21 06:18:45;;;;;;;9.30;7.18;;;5.40;99.90;;;;;;5036197;28;20022;-72
2022/09/21 06:21:11;;;;;;;11.50;7.13;;;5.60;99.90;;;;;;5037250;28;20511;-73
2022/09/21 06:23:36;;;;;;;10.80;7.10;;;5.70;99.90;;;;;;5036524;28;20075;-72
2022/09/21 06:26:02;;;;;;;14.05;9.15;;;5.90;99.90;;;;;;5036622;28;20397;-73
2022/09/21 06:28:28;;;;;;;10.82;8.25;;;6.00;99.90;;;;;;5036595;28;20060;-73
2022/09/21 06:30:55;;;;;;;11.65;8.35;;;6.20;99.90;;;;;;5036315;28;20474;-72
2022/09/21 06:33:22;;;;;;;11.80;8.43;;;6.40;99.90;;;;;;5036458;28;20409;-71
2022/09/21 06:35:56;;;;;;;12.35;9.00;;;6.50;99.90;;;;;;5036755;28;20022;-71
2022/09/21 06:38:22;;;;;;;12.30;9.52;;;6.60;99.90;;;;;;5036274;28;20025;-71
2022/09/21 06:40:49;;;;;;;10.85;8.23;;;6.80;99.90;;;;;;5035175;28;20033;-71
2022/09/21 06:43:14;;;;;;;10.95;8.23;;;6.90;99.90;;;;;;5036494;28;20362;-71
2022/09/21 06:45:40;;;;;;;15.57;10.18;;;7.10;99.90;;;;;;5036427;28;20026;-71
2022/09/21 06:48:06;;;;;;;16.10;12.25;;;7.30;99.90;;;;;;5036376;28;20024;-71
2022/09/21 06:50:32;;;;;;;12.85;9.82;;;7.50;99.90;;;;;;5036374;28;20033;-71
2022/09/21 06:53:01;;;;;;;36.50;11.73;;;7.70;99.90;;;;;;5035888;28;20120;-71
2022/09/21 06:55:28;;;;;;;13.00;9.23;;;7.90;99.90;;;;;;5035982;28;20037;-71
2022/09/21 06:58:02;;;;;;;13.85;10.05;;;8.10;99.90;;;;;;5036435;28;20022;-71
2022/09/21 07:00:28;;;;;;;14.73;10.93;;;8.40;99.90;;;;;;5036242;28;20505;-71
2022/09/21 07:02:53;;;;;;;15.63;10.45;;;8.60;99.90;;;;;;5036540;28;20457;-71
2022/09/21 07:05:19;;;;;;;16.88;11.57;;;8.80;99.90;;;;;;5035544;28;20036;-71
2022/09/21 07:07:44;;;;;;;14.07;10.80;;;9.00;99.90;;;;;;5036588;28;20453;-71
2022/09/21 07:10:10;;;;;;;17.80;12.43;;;9.30;99.90;;;;;;5036656;28;20075;-71
2022/09/21 07:12:36;;;;;;;19.83;13.70;;;9.50;99.90;;;;;;5036180;28;20057;-72
2022/09/21 07:15:02;;;;;;;21.80;11.18;;;9.60;99.90;;;;;;5047913;28;20496;-71
2022/09/21 07:17:35;;;;;;;20.63;10.15;;;9.70;99.90;;;;;;5055329;28;20110;-71
2022/09/21 07:20:02;;;;;;;12.98;9.82;;;9.80;99.90;;;;;;5055640;28;20021;-71
2022/09/21 07:22:29;;;;;;;17.40;10.32;;;10.00;99.90;;;;;;5055902;28;20471;-71
2022/09/21 07:24:55;;;;;;;18.60;9.55;;;10.20;99.90;;;;;;5055532;28;20103;-71
2022/09/21 07:27:20;;;;;;;18.98;9.68;;;10.30;99.90;;;;;;5055754;28;20056;-71
2022/09/21 07:29:46;;;;;;;11.98;8.18;;;10.60;99.90;;;;;;5054976;28;20489;-71
2022/09/21 07:32:12;;;;;;;15.38;8.45;;;10.80;99.90;;;;;;5055546;28;20040;-71
2022/09/21 07:34:38;;;;;;;12.60;8.80;;;11.10;99.90;;;;;;5055413;28;20021;-71
2022/09/21 07:37:03;;;;;;;12.50;7.88;;;11.30;99.90;;;;;;5055485;28;20027;-71
2022/09/21 07:39:29;;;;;;;11.32;7.72;;;11.60;99.90;;;;;;5055468;28;20045;-71
2022/09/21 07:41:57;;;;;;;13.98;8.23;;;11.80;99.90;;;;;;5054626;28;20080;-71
2022/09/21 07:44:23;;;;;;;8.10;6.57;;;12.00;99.90;;;;;;5038468;28;20029;-71
2022/09/21 07:46:48;;;;;;;11.35;7.07;;;12.20;99.90;;;;;;5035574;28;20021;-71
2022/09/21 07:49:14;;;;;;;9.70;6.32;;;12.40;99.90;;;;;;5035280;28;20081;-71
2022/09/21 07:51:40;;;;;;;7.50;6.07;;;12.60;99.90;;;;;;5035598;28;20041;-71
2022/09/21 07:54:05;;;;;;;17.65;6.18;;;12.80;99.90;;;;;;5036938;28;20427;-71
2022/09/21 07:56:31;;;;;;;8.45;5.68;;;12.90;99.90;;;;;;5034694;28;20021;-70
2022/09/21 07:59:05;;;;;;;9.10;5.22;;;13.10;99.90;;;;;;5035069;28;20021;-70
2022/09/21 08:01:32;;;;;;;7.40;4.88;;;13.30;99.90;;;;;;5034997;28;20026;-71
2022/09/21 08:03:58;;;;;;;9.40;3.85;;;13.20;99.90;;;;;;5034816;28;20032;-71
2022/09/21 08:06:26;;;;;;;5.70;3.88;;;13.10;99.90;;;;;;5034437;28;20025;-71
2022/09/21 08:08:52;;;;;;;9.95;3.30;;;13.40;99.90;;;;;;5035003;28;20147;-70
2022/09/21 08:11:21;;;;;;;4.72;2.80;;;13.40;99.90;;;;;;5034638;28;20181;-70
2022/09/21 08:14:07;;;;;;;8.70;3.00;;;13.50;99.90;;;;;;5034900;28;20103;-71
2022/09/21 08:16:32;;;;;;;5.03;2.47;;;13.80;99.90;;;;;;5033598;28;20041;-70
2022/09/21 08:18:58;;;;;;;3.38;2.53;;;14.00;99.90;;;;;;5034610;28;20024;-70
2022/09/21 08:21:24;;;;;;;6.40;2.35;;;14.30;99.90;;;;;;5034868;28;20025;-70
2022/09/21 08:23:49;;;;;;;6.30;2.95;;;14.50;99.90;;;;;;5034298;28;20029;-71
2022/09/21 08:26:18;;;;;;;12.20;2.30;;;14.70;99.90;;;;;;5034197;28;20022;-71
2022/09/21 08:28:50;;;;;;;9.85;2.65;;;14.80;99.90;;;;;;5033921;28;20018;-71
2022/09/21 08:31:18;;;;;;;6.85;2.05;;;15.10;99.90;;;;;;5034336;28;20469;-70
2022/09/21 08:33:44;;;;;;;4.43;2.00;;;15.40;99.90;;;;;;5034778;28;20021;-71
2022/09/21 08:36:09;;;;;;;4.22;2.25;;;15.40;99.90;;;;;;5034219;28;20521;-70
2022/09/21 08:38:37;;;;;;;8.10;2.30;;;15.50;99.90;;;;;;5034415;28;20025;-70
2022/09/21 08:41:15;;;;;;;5.35;1.85;;;15.70;99.90;;;;;;5032996;28;20481;-70
2022/09/21 08:43:52;;;;;;;4.22;1.75;;;15.90;99.90;;;;;;5034051;28;20529;-71
2022/09/21 08:46:21;;;;;;;4.13;2.22;;;16.00;99.90;;;;;;5034092;28;20049;-71
2022/09/21 08:49:05;;;;;;;8.98;2.15;;;16.20;99.90;;;;;;5034114;28;20064;-70
2022/09/21 08:51:35;;;;;;;4.95;1.30;;;16.30;99.90;;;;;;5034288;28;20034;-70
2022/09/21 08:54:17;;;;;;;7.55;2.13;;;16.30;99.90;;;;;;5033889;28;20082;-71
2022/09/21 08:56:43;;;;;;;2.47;1.52;;;16.30;99.90;;;;;;5034105;28;20025;-70
2022/09/21 08:59:14;;;;;;;7.28;2.42;;;16.40;99.90;;;;;;5033895;28;20028;-70
2022/09/21 09:02:26;;;;;;;12.23;5.47;;;16.60;99.90;;;;;;5033434;28;20032;-71
2022/09/21 09:04:55;;;;;;;23.98;11.05;;;16.60;99.90;;;;;;5034097;28;20035;-71
2022/09/21 09:07:46;;;;;;;21.50;12.43;;;16.90;99.90;;;;;;5033898;28;20014;-70
2022/09/21 09:10:17;;;;;;;22.42;11.90;;;17.00;99.90;;;;;;5034115;28;20048;-70
2022/09/21 09:13:11;;;;;;;6.90;4.07;;;17.20;99.90;;;;;;5033456;28;20083;-70
2022/09/21 09:15:42;;;;;;;10.07;4.68;;;17.20;99.90;;;;;;5034017;28;20493;-71
2022/09/21 09:18:17;;;;;;;11.85;3.78;;;17.20;99.90;;;;;;5033278;28;20541;-70
2022/09/21 09:20:47;;;;;;;10.50;3.22;;;17.20;99.90;;;;;;5033658;28;20029;-70
2022/09/21 09:23:31;;;;;;;19.08;6.97;;;16.90;99.90;;;;;;5033738;28;20381;-71
2022/09/21 09:26:41;;;;;;;16.08;6.32;;;17.10;99.90;;;;;;5033862;28;20431;-71
2022/09/21 09:29:19;;;;;;;4.13;1.58;;;17.60;99.90;;;;;;5005009;28;20060;-70
2022/09/21 09:31:46;;;;;;;8.05;1.73;;;18.10;99.90;;;;;;5033262;28;20030;-71
2022/09/21 09:34:19;;;;;;;4.90;1.40;;;18.60;99.90;;;;;;5033816;28;20018;-71
2022/09/21 09:36:49;;;;;;;7.65;2.22;;;18.80;99.90;;;;;;5033715;28;20022;-71
2022/09/21 09:39:15;;;;;;;10.98;2.95;;;18.90;99.90;;;;;;5033060;28;20473;-70
2022/09/21 09:42:08;;;;;;;5.55;2.00;;;19.00;99.90;;;;;;5033673;28;20437;-70
2022/09/21 09:45:12;;;;;;;9.05;2.00;;;19.30;99.90;;;;;;5048788;28;20393;-70
2022/09/21 09:48:06;;;;;;;7.80;1.55;;;19.10;99.90;;;;;;5033754;28;20144;-70
2022/09/21 09:50:38;;;;;;;7.70;1.52;;;18.90;99.90;;;;;;5032719;28;20453;-71
2022/09/21 09:53:17;;;;;;;5.32;1.45;;;18.60;99.90;;;;;;5035566;28;20087;-70
2022/09/21 09:55:48;;;;;;;3.97;0.80;;;19.00;99.90;;;;;;5037572;28;20481;-70
2022/09/21 09:58:40;;;;;;;3.80;0.95;;;19.30;99.90;;;;;;5037387;28;20048;-71
2022/09/21 10:01:06;;;;;;;2.53;0.70;;;19.40;99.90;;;;;;5029966;28;20103;-70
2022/09/21 10:03:32;;;;;;;6.10;1.05;;;19.40;99.90;;;;;;5035850;28;20473;-70
2022/09/21 10:05:57;;;;;;;5.70;0.93;;;19.70;99.90;;;;;;5037031;28;20078;-71
2022/09/21 10:08:43;;;;;;;2.95;0.70;;;20.00;99.90;;;;;;5036802;28;20022;-70
2022/09/21 10:11:11;;;;;;;2.90;0.73;;;19.50;99.90;;;;;;5036453;28;20496;-70
2022/09/21 10:13:45;;;;;;;6.35;1.95;;;19.60;99.90;;;;;;5037566;28;20093;-71
2022/09/21 10:16:16;;;;;;;1.13;0.52;;;20.10;99.90;;;;;;5037126;28;20025;-70
2022/09/21 10:18:48;;;;;;;3.80;1.42;;;20.40;99.90;;;;;;5038282;28;20029;-70
2022/09/21 10:21:39;;;;;;;7.80;0.98;;;20.50;99.90;;;;;;5037696;28;20040;-70
2022/09/21 10:24:13;;;;;;;5.05;1.05;;;20.30;99.90;;;;;;5036283;28;20021;-71
2022/09/21 10:27:06;;;;;;;4.95;1.00;;;20.10;99.90;;;;;;5036893;28;20028;-70
2022/09/21 10:29:39;;;;;;;2.67;0.77;;;19.30;99.90;;;;;;5036629;28;20021;-70
2022/09/21 10:32:16;;;;;;;3.85;1.30;;;18.60;99.90;;;;;;5036026;28;20130;-70
2022/09/21 10:35:12;;;;;;;5.38;1.00;;;18.00;99.90;;;;;;5036346;28;20540;-70
2022/09/21 10:37:44;;;;;;;6.45;1.08;;;18.10;99.90;;;;;;5036721;28;20113;-71
2022/09/21 10:40:18;;;;;;;1.63;0.68;;;18.20;99.90;;;;;;5036623;28;20053;-71
2022/09/21 10:42:47;;;;;;;0.60;0.50;;;18.00;99.90;;;;;;5035851;28;20392;-71
2022/09/21 10:45:17;;;;;;;9.57;0.82;;;17.70;99.90;;;;;;5036351;28;20025;-71
2022/09/21 10:47:45;;;;;;;2.42;0.70;;;17.80;99.90;;;;;;5054539;28;20025;-71
2022/09/21 10:50:33;;;;;;;8.88;1.75;;;18.00;99.90;;;;;;5055963;28;20473;-71
2022/09/21 10:53:17;;;;;;;4.63;0.90;;;17.90;99.90;;;;;;5055648;28;20083;-71
2022/09/21 10:55:46;;;;;;;;;;;18.00;99.90;;;;;;5057135;28;20033;-71
2022/09/21 10:58:13;;;;;;;5.68;0.90;;;18.30;99.90;;;;;;5056013;28;19904;-71
2022/09/21 11:00:46;;;;;;;4.32;1.10;;;18.80;99.90;;;;;;5045416;28;20021;-71
2022/09/21 11:03:50;;;;;;;4.85;1.17;;;19.10;99.90;;;;;;5036291;28;20034;-71
2022/09/21 11:06:24;;;;;;;2.83;0.80;;;19.50;99.90;;;;;;5050811;28;20075;-71
2022/09/21 11:09:12;;;;;;;2.65;0.60;;;19.70;99.90;;;;;;5036203;28;20452;-71
2022/09/21 11:11:56;;;;;;;5.10;0.90;;;19.50;99.90;;;;;;5036495;28;20369;-71
2022/09/21 11:14:40;;;;;;;2.95;0.60;;;19.40;99.90;;;;;;5035427;28;20101;-71
2022/09/21 11:17:15;;;;;;;3.33;0.80;;;19.30;99.90;;;;;;5036004;28;20030;-70
2022/09/21 11:19:50;;;;;;;13.55;1.98;;;19.20;99.90;;;;;;5035842;28;20410;-69
2022/09/21 11:22:38;;;;;;;3.65;0.95;;;19.30;99.90;;;;;;5035384;28;20033;-70
2022/09/21 11:25:45;;;;;;;5.45;1.15;;;19.00;99.90;;;;;;5035635;28;20030;-71
2022/09/21 11:28:24;;;;;;;2.35;0.80;;;18.70;99.90;;;;;;5035705;28;20022;-70
2022/09/21 11:31:27;;;;;;;2.03;0.43;;;18.10;99.90;;;;;;5035560;28;20513;-70
2022/09/21 11:34:24;;;;;;;2.13;0.90;;;17.70;99.90;;;;;;5035885;28;20658;-70
2022/09/21 11:37:09;;;;;;;6.35;1.33;;;17.20;99.90;;;;;;5035463;28;20068;-70
2022/09/21 11:40:14;;;;;;;3.97;0.80;;;17.10;99.90;;;;;;5035367;28;20017;-71
2022/09/21 11:42:47;;;;;;;;;;;17.50;99.90;;;;;;5012502;28;20053;-71
2022/09/21 11:45:39;;;;;;;2.92;0.60;;;17.50;99.90;;;;;;5034791;28;19979;-71
2022/09/21 11:48:50;;;;;;;5.45;1.15;;;18.40;99.90;;;;;;5035311;28;20025;-70
2022/09/21 11:51:27;;;;;;;5.70;0.75;;;19.30;99.90;;;;;;5014662;28;20460;-70
2022/09/21 11:54:20;;;;;;;2.55;0.60;;;19.80;99.90;;;;;;5035031;28;20045;-70
2022/09/21 11:57:01;;;;;;;3.03;0.80;;;19.70;99.90;;;;;;5035248;28;20032;-70
2022/09/21 11:59:59;;;;;;;4.97;0.90;;;20.10;99.90;;;;;;5034532;28;20024;-70
2022/09/21 12:02:24;;;;;;;2.08;0.60;;;20.30;99.90;;;;;;5030744;28;20084;-71
2022/09/21 12:05:00;;;;;;;5.65;0.80;;;20.50;99.90;;;;;;5034821;28;20428;-70
2022/09/21 12:08:01;;;;;;;3.90;0.60;;;20.80;99.90;;;;;;5034807;28;20504;-70
2022/09/21 12:10:42;;;;;;;4.63;0.88;;;21.40;99.90;;;;;;5016040;28;20045;-70
2022/09/21 12:13:10;;;;;;;1.38;0.52;;;21.60;99.90;;;;;;5034786;28;20072;-70
2022/09/21 12:15:50;;;;;;;1.48;0.47;;;22.10;99.90;;;;;;5034334;28;20076;-71
2022/09/21 12:18:40;;;;;;;2.47;0.70;;;22.30;99.90;;;;;;5034569;28;20021;-70
2022/09/21 12:21:27;;;;;;;2.05;0.60;;;22.10;99.90;;;;;;5036708;28;20016;-70
2022/09/21 12:23:56;;;;;;;1.88;0.77;;;22.60;99.90;;;;;;5054715;28;20024;-70
2022/09/21 12:26:38;;;;;;;4.82;0.73;;;22.50;99.90;;;;;;5053848;28;20025;-70
2022/09/21 12:29:26;;;;;;;4.40;0.50;;;22.40;99.90;;;;;;5054263;28;20032;-71
2022/09/21 12:31:55;;;;;;;1.33;0.50;;;22.60;99.90;;;;;;5053332;28;20047;-70
2022/09/21 12:34:26;;;;;;;0.98;0.25;;;22.70;99.90;;;;;;5033906;28;20017;-71
2022/09/21 12:37:03;;;;;;;4.65;0.95;;;23.20;99.90;;;;;;5034405;28;20076;-71
2022/09/21 12:39:35;;;;;;;1.75;0.30;;;23.10;99.90;;;;;;5034305;28;20474;-70
2022/09/21 12:42:21;;;;;;;1.02;0.45;;;23.50;99.90;;;;;;5034481;28;20036;-70
2022/09/21 12:44:54;;;;;;;1.52;0.70;;;23.60;99.90;;;;;;5035166;28;20108;-70
2022/09/21 12:47:48;;;;;;;0.98;0.52;;;23.80;99.90;;;;;;5034481;28;20026;-70
2022/09/21 12:50:34;;;;;;;2.85;0.50;;;23.50;99.90;;;;;;5034026;28;20112;-70
2022/09/21 12:53:01;;;;;;;3.25;0.60;;;22.80;99.90;;;;;;5033484;28;20490;-70
2022/09/21 12:55:40;;;;;;;2.85;0.93;;;23.40;99.90;;;;;;5034057;28;20083;-70
2022/09/21 12:58:28;;;;;;;2.40;0.43;;;23.50;99.90;;;;;;5033892;28;20029;-70
2022/09/21 13:01:06;;;;;;;0.95;0.45;;;23.60;97.20;;;;;;5034082;28;20017;-70
2022/09/21 13:03:42;;;;;;;5.22;0.63;;;23.10;96.30;;;;;;5033303;28;20508;-71
2022/09/21 13:06:28;;;;;;;2.08;0.90;;;22.40;95.70;;;;;;5034016;28;20476;-69
2022/09/21 13:08:55;;;;;;;1.35;0.30;;;21.80;98.00;;;;;;5034102;28;20504;-71
2022/09/21 13:11:22;;;;;;;2.80;0.80;;;21.90;97.20;;;;;;5033114;28;20026;-70
2022/09/21 13:13:52;;;;;;;1.15;0.40;;;22.10;99.30;;;;;;5033711;28;20018;-71
2022/09/21 13:16:33;;;;;;;1.08;0.32;;;22.20;99.50;;;;;;5033982;28;20529;-71
2022/09/21 13:19:12;;;;;;;2.97;0.82;;;22.40;98.50;;;;;;5034141;28;20017;-70
2022/09/21 13:21:39;;;;;;;0.98;0.40;;;22.30;98.90;;;;;;5033929;28;20100;-71
2022/09/21 13:24:11;;;;;;;3.58;0.50;;;22.60;98.60;;;;;;5033183;28;20551;-70
2022/09/21 13:26:52;;;;;;;5.78;0.63;;;22.60;99.90;;;;;;5035509;28;20033;-71